sensor_id;sensor_type;location;lat;lon;timestamp;temperature;humidity
64670;DHT22;51080;51.690;5.174;2023-03-31T00:04:44;11.50;76.30
64670;DHT22;51080;51.690;5.174;2023-03-31T00:10:30;11.30;78.10
64670;DHT22;51080;51.690;5.174;2023-03-31T00:16:15;11.20;78.90
64670;DHT22;51080;51.690;5.174;2023-03-31T00:21:59;11.10;81.10
64670;DHT22;51080;51.690;5.174;2023-03-31T00:27:44;10.90;82.60
64670;DHT22;51080;51.690;5.174;2023-03-31T00:33:29;10.80;82.90
64670;DHT22;51080;51.690;5.174;2023-03-31T00:39:16;10.70;82.60
64670;DHT22;51080;51.690;5.174;2023-03-31T00:45:23;10.70;83.40
64670;DHT22;51080;51.690;5.174;2023-03-31T00:51:08;10.60;83.30
64670;DHT22;51080;51.690;5.174;2023-03-31T00:56:54;10.60;83.90
64670;DHT22;51080;51.690;5.174;2023-03-31T01:02:45;10.60;84.10
64670;DHT22;51080;51.690;5.174;2023-03-31T01:08:31;10.60;84.20
64670;DHT22;51080;51.690;5.174;2023-03-31T01:14:14;10.60;83.80
64670;DHT22;51080;51.690;5.174;2023-03-31T01:51:58;10.60;85.40
64670;DHT22;51080;51.690;5.174;2023-03-31T01:57:53;10.60;84.30
64670;DHT22;51080;51.690;5.174;2023-03-31T02:03:45;10.60;84.40
64670;DHT22;51080;51.690;5.174;2023-03-31T02:10:03;10.60;84.80
64670;DHT22;51080;51.690;5.174;2023-03-31T02:15:53;10.60;87.40
64670;DHT22;51080;51.690;5.174;2023-03-31T02:21:38;10.60;85.30
64670;DHT22;51080;51.690;5.174;2023-03-31T02:27:32;10.60;85.00
64670;DHT22;51080;51.690;5.174;2023-03-31T02:33:18;10.60;85.30
64670;DHT22;51080;51.690;5.174;2023-03-31T02:39:07;10.50;85.50
64670;DHT22;51080;51.690;5.174;2023-03-31T02:44:52;10.50;85.10
64670;DHT22;51080;51.690;5.174;2023-03-31T02:51:06;10.50;85.40
64670;DHT22;51080;51.690;5.174;2023-03-31T03:02:50;10.50;84.70
64670;DHT22;51080;51.690;5.174;2023-03-31T03:08:53;10.50;84.50
64670;DHT22;51080;51.690;5.174;2023-03-31T03:14:58;10.40;84.70
64670;DHT22;51080;51.690;5.174;2023-03-31T03:20:44;10.40;85.40
64670;DHT22;51080;51.690;5.174;2023-03-31T03:26:28;10.40;86.00
64670;DHT22;51080;51.690;5.174;2023-03-31T03:32:11;10.30;86.60
64670;DHT22;51080;51.690;5.174;2023-03-31T03:37:55;10.30;87.10
64670;DHT22;51080;51.690;5.174;2023-03-31T03:43:40;10.20;87.40
64670;DHT22;51080;51.690;5.174;2023-03-31T03:49:24;10.20;87.00
64670;DHT22;51080;51.690;5.174;2023-03-31T03:55:09;10.30;86.70
64670;DHT22;51080;51.690;5.174;2023-03-31T04:00:54;10.30;87.50
64670;DHT22;51080;51.690;5.174;2023-03-31T04:06:37;10.20;88.80
64670;DHT22;51080;51.690;5.174;2023-03-31T04:12:21;10.20;88.70
64670;DHT22;51080;51.690;5.174;2023-03-31T04:18:06;10.20;88.40
64670;DHT22;51080;51.690;5.174;2023-03-31T04:23:52;10.20;88.70
64670;DHT22;51080;51.690;5.174;2023-03-31T04:29:37;10.10;89.30
64670;DHT22;51080;51.690;5.174;2023-03-31T04:35:25;10.10;89.90
64670;DHT22;51080;51.690;5.174;2023-03-31T04:41:09;10.00;89.60
64670;DHT22;51080;51.690;5.174;2023-03-31T04:46:54;10.00;89.90
64670;DHT22;51080;51.690;5.174;2023-03-31T04:52:38;10.00;89.60
64670;DHT22;51080;51.690;5.174;2023-03-31T04:58:21;9.90;89.50
64670;DHT22;51080;51.690;5.174;2023-03-31T05:04:05;9.90;89.80
64670;DHT22;51080;51.690;5.174;2023-03-31T05:09:49;9.90;89.50
64670;DHT22;51080;51.690;5.174;2023-03-31T05:15:36;9.90;89.30
64670;DHT22;51080;51.690;5.174;2023-03-31T05:21:21;9.80;89.50
64670;DHT22;51080;51.690;5.174;2023-03-31T05:27:05;9.80;89.80
64670;DHT22;51080;51.690;5.174;2023-03-31T05:32:49;9.80;89.60
64670;DHT22;51080;51.690;5.174;2023-03-31T05:38:34;9.80;89.20
64670;DHT22;51080;51.690;5.174;2023-03-31T05:44:18;9.80;89.40
64670;DHT22;51080;51.690;5.174;2023-03-31T05:50:03;9.90;89.10
64670;DHT22;51080;51.690;5.174;2023-03-31T05:55:48;9.90;88.70
64670;DHT22;51080;51.690;5.174;2023-03-31T06:01:32;9.90;88.10
64670;DHT22;51080;51.690;5.174;2023-03-31T06:07:16;9.90;87.90
64670;DHT22;51080;51.690;5.174;2023-03-31T06:13:00;9.90;88.20
64670;DHT22;51080;51.690;5.174;2023-03-31T06:18:45;9.90;89.30
64670;DHT22;51080;51.690;5.174;2023-03-31T06:24:28;9.80;90.10
64670;DHT22;51080;51.690;5.174;2023-03-31T06:30:42;9.80;91.00
64670;DHT22;51080;51.690;5.174;2023-03-31T06:36:27;9.80;91.30
64670;DHT22;51080;51.690;5.174;2023-03-31T06:42:13;9.80;90.60
64670;DHT22;51080;51.690;5.174;2023-03-31T06:47:57;9.80;91.20
64670;DHT22;51080;51.690;5.174;2023-03-31T06:53:46;9.80;90.50
64670;DHT22;51080;51.690;5.174;2023-03-31T06:59:31;9.90;90.80
64670;DHT22;51080;51.690;5.174;2023-03-31T07:05:14;9.90;90.70
64670;DHT22;51080;51.690;5.174;2023-03-31T07:10:59;9.90;90.60
64670;DHT22;51080;51.690;5.174;2023-03-31T07:16:47;10.00;90.20
64670;DHT22;51080;51.690;5.174;2023-03-31T07:23:03;10.10;89.90
64670;DHT22;51080;51.690;5.174;2023-03-31T07:28:49;10.10;90.80
64670;DHT22;51080;51.690;5.174;2023-03-31T07:34:35;10.20;90.00
64670;DHT22;51080;51.690;5.174;2023-03-31T07:40:23;10.40;89.80
64670;DHT22;51080;51.690;5.174;2023-03-31T07:46:22;10.50;89.60
64670;DHT22;51080;51.690;5.174;2023-03-31T07:52:06;10.70;89.70
64670;DHT22;51080;51.690;5.174;2023-03-31T07:57:53;10.80;89.90
64670;DHT22;51080;51.690;5.174;2023-03-31T08:03:37;10.90;89.30
64670;DHT22;51080;51.690;5.174;2023-03-31T08:09:22;10.90;89.20
64670;DHT22;51080;51.690;5.174;2023-03-31T08:15:08;10.90;88.90
64670;DHT22;51080;51.690;5.174;2023-03-31T08:20:52;10.90;88.90
64670;DHT22;51080;51.690;5.174;2023-03-31T08:26:36;11.00;89.30
64670;DHT22;51080;51.690;5.174;2023-03-31T08:32:23;11.10;89.10
64670;DHT22;51080;51.690;5.174;2023-03-31T08:38:06;11.20;89.20
64670;DHT22;51080;51.690;5.174;2023-03-31T08:43:53;11.30;88.90
64670;DHT22;51080;51.690;5.174;2023-03-31T08:49:43;11.40;88.90
64670;DHT22;51080;51.690;5.174;2023-03-31T08:55:42;11.50;88.40
64670;DHT22;51080;51.690;5.174;2023-03-31T09:01:48;11.70;88.70
64670;DHT22;51080;51.690;5.174;2023-03-31T09:07:45;11.90;88.30
64670;DHT22;51080;51.690;5.174;2023-03-31T09:14:00;12.10;87.90
64670;DHT22;51080;51.690;5.174;2023-03-31T09:19:51;12.20;86.60
64670;DHT22;51080;51.690;5.174;2023-03-31T09:25:38;12.20;86.50
64670;DHT22;51080;51.690;5.174;2023-03-31T09:31:23;12.20;85.40
64670;DHT22;51080;51.690;5.174;2023-03-31T09:37:11;12.20;84.70
64670;DHT22;51080;51.690;5.174;2023-03-31T09:43:17;12.30;83.50
64670;DHT22;51080;51.690;5.174;2023-03-31T09:49:35;12.30;84.10
64670;DHT22;51080;51.690;5.174;2023-03-31T10:01:28;12.90;82.80
64670;DHT22;51080;51.690;5.174;2023-03-31T10:07:12;12.90;81.70
64670;DHT22;51080;51.690;5.174;2023-03-31T10:13:07;12.90;81.20
64670;DHT22;51080;51.690;5.174;2023-03-31T10:18:52;12.90;82.20
64670;DHT22;51080;51.690;5.174;2023-03-31T10:24:48;13.00;79.30
64670;DHT22;51080;51.690;5.174;2023-03-31T10:30:34;13.00;79.60
64670;DHT22;51080;51.690;5.174;2023-03-31T10:36:26;12.90;77.00
64670;DHT22;51080;51.690;5.174;2023-03-31T10:42:20;12.80;78.50
64670;DHT22;51080;51.690;5.174;2023-03-31T10:48:17;12.70;78.30
64670;DHT22;51080;51.690;5.174;2023-03-31T10:54:01;12.60;78.70
64670;DHT22;51080;51.690;5.174;2023-03-31T11:00:37;12.50;78.70
64670;DHT22;51080;51.690;5.174;2023-03-31T11:44:08;12.90;77.50
64670;DHT22;51080;51.690;5.174;2023-03-31T11:49:56;12.90;76.60
64670;DHT22;51080;51.690;5.174;2023-03-31T11:55:42;12.70;77.20
64670;DHT22;51080;51.690;5.174;2023-03-31T12:07:57;12.50;78.80
64670;DHT22;51080;51.690;5.174;2023-03-31T12:13:57;12.20;80.40
64670;DHT22;51080;51.690;5.174;2023-03-31T12:19:49;11.90;82.40
64670;DHT22;51080;51.690;5.174;2023-03-31T12:25:54;11.80;83.60
64670;DHT22;51080;51.690;5.174;2023-03-31T12:31:42;12.00;84.80
64670;DHT22;51080;51.690;5.174;2023-03-31T12:44:15;12.20;84.60
64670;DHT22;51080;51.690;5.174;2023-03-31T12:56:12;12.20;82.80
64670;DHT22;51080;51.690;5.174;2023-03-31T13:07:55;12.10;82.00
64670;DHT22;51080;51.690;5.174;2023-03-31T13:13:44;12.10;82.60
64670;DHT22;51080;51.690;5.174;2023-03-31T13:19:31;12.00;82.80
64670;DHT22;51080;51.690;5.174;2023-03-31T13:25:32;11.90;83.80
64670;DHT22;51080;51.690;5.174;2023-03-31T13:31:18;11.70;84.50
64670;DHT22;51080;51.690;5.174;2023-03-31T13:44:04;11.40;85.60
64670;DHT22;51080;51.690;5.174;2023-03-31T13:50:34;11.40;86.80
64670;DHT22;51080;51.690;5.174;2023-03-31T14:03:29;11.50;85.80
64670;DHT22;51080;51.690;5.174;2023-03-31T14:09:11;11.60;85.70
64670;DHT22;51080;51.690;5.174;2023-03-31T14:14:56;11.70;85.20
64670;DHT22;51080;51.690;5.174;2023-03-31T14:39:29;11.70;84.00
64670;DHT22;51080;51.690;5.174;2023-03-31T14:45:23;11.70;83.80
64670;DHT22;51080;51.690;5.174;2023-03-31T14:51:08;11.50;84.70
64670;DHT22;51080;51.690;5.174;2023-03-31T14:56:55;11.40;84.90
64670;DHT22;51080;51.690;5.174;2023-03-31T15:02:43;11.30;85.70
64670;DHT22;51080;51.690;5.174;2023-03-31T15:08:30;11.20;86.10
64670;DHT22;51080;51.690;5.174;2023-03-31T15:14:15;11.20;85.50
64670;DHT22;51080;51.690;5.174;2023-03-31T15:20:01;11.20;85.60
64670;DHT22;51080;51.690;5.174;2023-03-31T15:26:02;11.10;85.50
64670;DHT22;51080;51.690;5.174;2023-03-31T15:31:47;11.10;86.10
64670;DHT22;51080;51.690;5.174;2023-03-31T15:37:42;11.00;86.10
64670;DHT22;51080;51.690;5.174;2023-03-31T15:43:31;10.90;86.60
64670;DHT22;51080;51.690;5.174;2023-03-31T15:49:23;10.90;86.30
64670;DHT22;51080;51.690;5.174;2023-03-31T16:01:14;10.70;86.80
64670;DHT22;51080;51.690;5.174;2023-03-31T16:07:04;10.70;86.60
64670;DHT22;51080;51.690;5.174;2023-03-31T16:13:03;10.70;86.90
64670;DHT22;51080;51.690;5.174;2023-03-31T16:19:20;10.70;86.90
64670;DHT22;51080;51.690;5.174;2023-03-31T16:25:38;10.70;87.40
64670;DHT22;51080;51.690;5.174;2023-03-31T16:31:38;10.70;87.30
64670;DHT22;51080;51.690;5.174;2023-03-31T16:37:24;10.70;87.20
64670;DHT22;51080;51.690;5.174;2023-03-31T16:43:14;10.70;87.10
64670;DHT22;51080;51.690;5.174;2023-03-31T16:49:29;10.70;87.50
64670;DHT22;51080;51.690;5.174;2023-03-31T16:55:14;10.60;88.20
64670;DHT22;51080;51.690;5.174;2023-03-31T17:00:59;10.60;87.70
64670;DHT22;51080;51.690;5.174;2023-03-31T17:06:42;10.60;88.00
64670;DHT22;51080;51.690;5.174;2023-03-31T17:12:26;10.50;88.20
64670;DHT22;51080;51.690;5.174;2023-03-31T17:18:11;10.50;88.20
64670;DHT22;51080;51.690;5.174;2023-03-31T17:23:55;10.40;88.40
64670;DHT22;51080;51.690;5.174;2023-03-31T17:30:10;10.40;88.70
64670;DHT22;51080;51.690;5.174;2023-03-31T17:35:56;10.40;89.10
64670;DHT22;51080;51.690;5.174;2023-03-31T17:42:12;10.30;88.70
64670;DHT22;51080;51.690;5.174;2023-03-31T17:47:58;10.30;89.20
64670;DHT22;51080;51.690;5.174;2023-03-31T17:53:44;10.30;88.70
64670;DHT22;51080;51.690;5.174;2023-03-31T17:59:29;10.20;89.00
64670;DHT22;51080;51.690;5.174;2023-03-31T18:05:13;10.20;89.20
64670;DHT22;51080;51.690;5.174;2023-03-31T18:10:58;10.20;89.40
64670;DHT22;51080;51.690;5.174;2023-03-31T18:16:43;10.20;89.20
64670;DHT22;51080;51.690;5.174;2023-03-31T18:22:27;10.10;89.50
64670;DHT22;51080;51.690;5.174;2023-03-31T18:28:13;10.20;89.60
64670;DHT22;51080;51.690;5.174;2023-03-31T18:33:59;10.10;89.50
64670;DHT22;51080;51.690;5.174;2023-03-31T18:39:44;10.10;89.40
64670;DHT22;51080;51.690;5.174;2023-03-31T18:45:29;10.10;89.60
64670;DHT22;51080;51.690;5.174;2023-03-31T18:51:13;10.10;89.60
64670;DHT22;51080;51.690;5.174;2023-03-31T18:56:57;10.10;90.40
64670;DHT22;51080;51.690;5.174;2023-03-31T19:02:45;10.10;89.90
64670;DHT22;51080;51.690;5.174;2023-03-31T19:08:29;10.10;89.80
64670;DHT22;51080;51.690;5.174;2023-03-31T19:14:14;10.10;90.10
64670;DHT22;51080;51.690;5.174;2023-03-31T19:20:00;10.00;90.20
64670;DHT22;51080;51.690;5.174;2023-03-31T19:25:45;10.00;90.50
64670;DHT22;51080;51.690;5.174;2023-03-31T19:31:29;10.00;90.60
64670;DHT22;51080;51.690;5.174;2023-03-31T19:37:13;10.00;90.70
64670;DHT22;51080;51.690;5.174;2023-03-31T19:42:58;10.00;90.90
64670;DHT22;51080;51.690;5.174;2023-03-31T19:48:43;10.00;90.80
64670;DHT22;51080;51.690;5.174;2023-03-31T19:54:59;10.10;90.90
64670;DHT22;51080;51.690;5.174;2023-03-31T20:00:44;10.00;90.80
64670;DHT22;51080;51.690;5.174;2023-03-31T20:06:29;10.00;90.40
64670;DHT22;51080;51.690;5.174;2023-03-31T20:12:13;10.00;90.40
64670;DHT22;51080;51.690;5.174;2023-03-31T20:17:59;10.00;90.60
64670;DHT22;51080;51.690;5.174;2023-03-31T20:24:15;10.00;90.60
64670;DHT22;51080;51.690;5.174;2023-03-31T20:30:03;9.90;91.30
64670;DHT22;51080;51.690;5.174;2023-03-31T20:35:47;9.90;91.20
64670;DHT22;51080;51.690;5.174;2023-03-31T20:41:34;9.90;91.40
64670;DHT22;51080;51.690;5.174;2023-03-31T20:47:20;9.90;90.90
64670;DHT22;51080;51.690;5.174;2023-03-31T20:53:05;9.90;90.80
64670;DHT22;51080;51.690;5.174;2023-03-31T20:58:50;9.80;91.00
64670;DHT22;51080;51.690;5.174;2023-03-31T21:04:34;9.80;90.80
64670;DHT22;51080;51.690;5.174;2023-03-31T21:10:19;9.80;91.00
64670;DHT22;51080;51.690;5.174;2023-03-31T21:16:34;9.80;91.10
64670;DHT22;51080;51.690;5.174;2023-03-31T21:22:19;9.80;91.10
64670;DHT22;51080;51.690;5.174;2023-03-31T21:28:04;9.80;90.90
64670;DHT22;51080;51.690;5.174;2023-03-31T21:33:49;9.80;91.10
64670;DHT22;51080;51.690;5.174;2023-03-31T21:39:34;9.80;91.10
64670;DHT22;51080;51.690;5.174;2023-03-31T21:45:22;9.80;91.50
64670;DHT22;51080;51.690;5.174;2023-03-31T21:51:07;9.80;91.40
64670;DHT22;51080;51.690;5.174;2023-03-31T21:56:54;9.70;91.30
64670;DHT22;51080;51.690;5.174;2023-03-31T22:02:42;9.70;91.20
64670;DHT22;51080;51.690;5.174;2023-03-31T22:08:30;9.70;91.30
64670;DHT22;51080;51.690;5.174;2023-03-31T22:14:14;9.70;91.80
64670;DHT22;51080;51.690;5.174;2023-03-31T22:19:59;9.70;92.00
64670;DHT22;51080;51.690;5.174;2023-03-31T22:25:43;9.70;92.00
64670;DHT22;51080;51.690;5.174;2023-03-31T22:31:27;9.70;92.30
64670;DHT22;51080;51.690;5.174;2023-03-31T22:37:12;9.70;92.20
64670;DHT22;51080;51.690;5.174;2023-03-31T22:43:00;9.70;92.10
64670;DHT22;51080;51.690;5.174;2023-03-31T22:48:48;9.70;92.10
64670;DHT22;51080;51.690;5.174;2023-03-31T22:54:35;9.70;92.10
64670;DHT22;51080;51.690;5.174;2023-03-31T23:00:21;9.70;92.10
64670;DHT22;51080;51.690;5.174;2023-03-31T23:06:05;9.70;92.10
64670;DHT22;51080;51.690;5.174;2023-03-31T23:11:52;9.70;92.00
64670;DHT22;51080;51.690;5.174;2023-03-31T23:17:37;9.70;92.10
64670;DHT22;51080;51.690;5.174;2023-03-31T23:23:23;9.70;92.10
64670;DHT22;51080;51.690;5.174;2023-03-31T23:29:10;9.70;92.30
64670;DHT22;51080;51.690;5.174;2023-03-31T23:34:55;9.70;92.40
64670;DHT22;51080;51.690;5.174;2023-03-31T23:40:43;9.70;92.30
64670;DHT22;51080;51.690;5.174;2023-03-31T23:46:31;9.70;92.20
64670;DHT22;51080;51.690;5.174;2023-03-31T23:52:18;9.70;92.10
64670;DHT22;51080;51.690;5.174;2023-03-31T23:58:03;9.70;92.10
